createdAt,value
2023-01-17T00:00:01.902Z,96494.97
2023-01-17T00:05:26.022Z,96489.13
2023-01-17T00:10:33.801Z,96484.09
2023-01-17T00:15:40.866Z,96474.10
2023-01-17T00:21:06.226Z,96470.36
2023-01-17T00:26:16.848Z,96468.71
2023-01-17T00:31:22.963Z,96471.30
2023-01-17T00:36:29.059Z,96479.88
2023-01-17T00:41:35.036Z,96473.48
2023-01-17T00:46:59.853Z,96475.55
2023-01-17T00:52:26.314Z,96464.58
2023-01-17T00:57:51.125Z,96471.52
2023-01-17T01:03:16.301Z,96463.63
2023-01-17T01:08:43.608Z,96469.21
2023-01-17T01:14:08.627Z,96456.09
2023-01-17T01:19:33.403Z,96462.32
2023-01-17T01:24:58.619Z,96472.11
2023-01-17T01:30:25.239Z,96450.06
2023-01-17T01:35:32.893Z,96436.29
2023-01-17T01:40:45.278Z,96450.77
2023-01-17T01:45:58.316Z,96446.94
2023-01-17T01:51:08.735Z,96450.92
2023-01-17T01:56:17.202Z,96442.36
2023-01-17T02:01:24.565Z,96429.55
2023-01-17T02:06:35.159Z,96428.77
2023-01-17T02:11:43.253Z,96429.54
2023-01-17T02:17:03.577Z,96430.56
2023-01-17T02:22:35.406Z,96432.81
2023-01-17T02:27:57.871Z,96445.68
2023-01-17T02:33:23.987Z,96451.59
2023-01-17T02:38:39.542Z,96435.10
2023-01-17T02:43:50.203Z,96434.48
2023-01-17T02:48:59.296Z,96442.05
2023-01-17T02:54:25.767Z,96448.69
2023-01-17T02:59:42.331Z,96453.52
2023-01-17T03:04:54.164Z,96449.02
2023-01-17T03:10:09.445Z,96448.22
2023-01-17T03:15:19.227Z,96453.33
2023-01-17T03:20:26.935Z,96453.85
2023-01-17T03:25:34.008Z,96467.06
2023-01-17T03:30:41.261Z,96478.81
2023-01-17T03:35:49.594Z,96485.94
2023-01-17T03:40:58.792Z,96491.24
2023-01-17T03:46:07.950Z,96486.09
2023-01-17T03:51:15.373Z,96495.29
2023-01-17T03:56:23.092Z,96503.79
2023-01-17T04:01:30.432Z,96505.22
2023-01-17T04:06:37.693Z,96508.14
2023-01-17T04:11:43.244Z,96509.69
2023-01-17T04:16:50.347Z,96519.36
2023-01-17T04:21:57.667Z,96517.81
2023-01-17T04:27:05.293Z,96512.03
2023-01-17T04:32:12.567Z,96513.94
2023-01-17T04:37:20.302Z,96510.29
2023-01-17T04:42:28.120Z,96503.33
2023-01-17T04:47:36.155Z,96505.45
2023-01-17T04:52:43.408Z,96496.54
2023-01-17T04:57:49.079Z,96504.06
2023-01-17T05:02:56.432Z,96504.17
2023-01-17T05:08:03.688Z,96510.91
2023-01-17T05:13:09.161Z,96510.50
2023-01-17T05:18:18.187Z,96513.03
2023-01-17T05:23:26.136Z,96508.69
2023-01-17T05:28:34.354Z,96511.35
2023-01-17T05:33:41.752Z,96511.72
2023-01-17T05:38:49.182Z,96509.12
2023-01-17T05:43:56.702Z,96499.06
2023-01-17T05:49:02.373Z,96499.27
2023-01-17T05:54:10.641Z,96488.74
2023-01-17T05:59:25.614Z,96473.66
2023-01-17T06:04:43.884Z,96490.82
2023-01-17T06:09:51.127Z,96507.60
2023-01-17T06:14:56.696Z,96509.34
2023-01-17T06:20:04.454Z,96502.70
2023-01-17T06:25:12.677Z,96504.27
2023-01-17T06:30:20.498Z,96501.92
2023-01-17T06:35:27.535Z,96495.65
2023-01-17T06:40:33.461Z,96511.50
2023-01-17T06:45:40.814Z,96526.16
2023-01-17T06:50:48.535Z,96529.50
2023-01-17T06:55:56.665Z,96522.52
2023-01-17T07:01:09.565Z,96514.56
2023-01-17T07:06:16.883Z,96510.92
2023-01-17T07:11:24.608Z,96509.88
2023-01-17T07:16:31.787Z,96512.34
2023-01-17T07:21:39.268Z,96514.21
2023-01-17T07:26:44.879Z,96513.14
2023-01-17T07:31:52.842Z,96510.60
2023-01-17T07:37:00.282Z,96511.67
2023-01-17T07:42:07.829Z,96516.29
2023-01-17T07:47:15.171Z,96518.26
2023-01-17T07:52:23.113Z,96522.39
2023-01-17T07:57:32.796Z,96526.45
2023-01-17T08:02:40.852Z,96530.04
2023-01-17T08:07:48.043Z,96531.20
2023-01-17T08:12:53.731Z,96542.14
2023-01-17T08:18:01.028Z,96549.45
2023-01-17T08:23:06.693Z,96558.02
2023-01-17T08:28:14.064Z,96565.30
2023-01-17T08:33:19.888Z,96574.00
2023-01-17T08:38:27.570Z,96579.39
2023-01-17T08:43:34.795Z,96583.16
2023-01-17T08:48:40.438Z,96588.46
2023-01-17T08:53:48.850Z,96593.51
2023-01-17T08:58:56.573Z,96599.00
2023-01-17T09:04:03.730Z,96603.20
2023-01-17T09:09:11.195Z,96607.67
2023-01-17T09:14:18.701Z,96612.78
2023-01-17T09:19:25.898Z,96623.94
2023-01-17T09:24:31.459Z,96624.44
2023-01-17T09:29:39.077Z,96625.80
2023-01-17T09:34:48.011Z,96626.56
2023-01-17T09:39:55.212Z,96628.72
2023-01-17T09:45:00.994Z,96625.64
2023-01-17T09:50:22.651Z,96628.31
2023-01-17T09:55:35.533Z,96627.52
2023-01-17T10:00:54.727Z,96625.23
2023-01-17T10:06:23.978Z,96625.69
2023-01-17T10:11:40.597Z,96631.15
2023-01-17T10:16:55.667Z,96629.30
2023-01-17T10:22:17.965Z,96636.66
2023-01-17T10:27:31.764Z,96642.51
2023-01-17T10:32:48.232Z,96636.84
2023-01-17T10:37:58.394Z,96634.93
2023-01-17T10:43:16.888Z,96648.57
2023-01-17T10:48:35.171Z,96652.26
2023-01-17T10:53:54.840Z,96657.00
2023-01-17T11:02:43.363Z,96666.89
2023-01-17T11:08:03.172Z,96671.71
2023-01-17T11:13:25.458Z,96676.79
2023-01-17T11:18:35.940Z,96673.03
2023-01-17T11:23:45.284Z,96668.75
2023-01-17T11:28:53.404Z,96673.38
2023-01-17T11:34:18.524Z,96679.95
2023-01-17T11:39:29.009Z,96675.52
2023-01-17T11:44:37.260Z,96673.47
2023-01-17T11:49:46.482Z,96673.29
2023-01-17T11:54:55.731Z,96670.39
2023-01-17T12:00:16.740Z,96668.98
2023-01-17T12:05:47.411Z,96663.56
2023-01-17T12:11:04.365Z,96651.06
2023-01-17T12:16:34.168Z,96645.08
2023-01-17T12:21:49.777Z,96635.79
2023-01-17T12:27:06.399Z,96645.11
2023-01-17T12:32:31.930Z,96638.48
2023-01-17T12:37:42.218Z,96643.27
2023-01-17T12:42:54.881Z,96653.23
2023-01-17T12:48:07.113Z,96651.25
2023-01-17T12:53:25.476Z,96640.42
2023-01-17T12:58:40.115Z,96642.27
2023-01-17T13:03:57.735Z,96647.86
2023-01-17T13:09:06.989Z,96647.24
2023-01-17T13:14:14.155Z,96654.70
2023-01-17T13:19:24.782Z,96663.50
2023-01-17T13:24:45.812Z,96671.34
2023-01-17T13:30:06.000Z,96676.10
2023-01-17T13:35:27.679Z,96687.98
2023-01-17T13:40:50.849Z,96699.05
2023-01-17T13:46:00.689Z,96709.64
2023-01-17T13:51:09.508Z,96701.96
2023-01-17T13:56:25.336Z,96705.14
2023-01-17T14:01:56.368Z,96722.33
2023-01-17T14:07:18.592Z,96729.33
2023-01-17T14:12:33.898Z,96734.91
2023-01-17T14:17:52.384Z,96739.75
2023-01-17T14:23:02.997Z,96745.59
2023-01-17T14:28:25.022Z,96745.95
2023-01-17T14:33:36.912Z,96756.23
2023-01-17T14:38:47.027Z,96766.70
2023-01-17T14:43:55.300Z,96775.21
2023-01-17T14:49:07.694Z,96781.58
2023-01-17T14:54:23.036Z,96789.68
2023-01-17T14:59:30.417Z,96796.04
2023-01-17T15:04:40.077Z,96799.72
2023-01-17T15:09:47.705Z,96813.46
2023-01-17T15:14:58.865Z,96817.20
2023-01-17T15:20:17.334Z,96818.80
2023-01-17T15:25:24.919Z,96814.03
2023-01-17T15:30:32.448Z,96819.52
2023-01-17T15:35:39.548Z,96822.41
2023-01-17T15:40:46.029Z,96823.20
2023-01-17T15:46:00.400Z,96820.80
2023-01-17T15:51:08.316Z,96822.11
2023-01-17T15:56:31.051Z,96813.60
2023-01-17T16:01:39.024Z,96801.04
2023-01-17T16:06:46.905Z,96795.92
2023-01-17T16:11:54.195Z,96790.59
2023-01-17T16:17:03.002Z,96783.39
2023-01-17T16:22:12.643Z,96785.05
2023-01-17T16:27:20.230Z,96781.84
2023-01-17T16:32:28.360Z,96781.06
2023-01-17T16:37:35.630Z,96773.70
2023-01-17T16:42:42.812Z,96768.83
2023-01-17T16:47:49.521Z,96750.39
2023-01-17T16:52:57.470Z,96747.06
2023-01-17T17:02:26.293Z,96747.06
2023-01-17T17:07:35.515Z,96749.42
2023-01-17T17:12:42.695Z,96770.80
2023-01-17T17:17:49.951Z,96750.61
2023-01-17T17:22:57.573Z,96753.42
2023-01-17T17:28:05.104Z,96727.58
2023-01-17T17:33:12.700Z,96728.09
2023-01-17T17:38:20.330Z,96742.08
2023-01-17T17:43:27.934Z,96750.83
2023-01-17T17:48:35.425Z,96735.45
2023-01-17T17:53:42.636Z,96722.17
2023-01-17T17:58:48.194Z,96725.90
2023-01-17T18:03:57.595Z,96730.96
2023-01-17T18:09:05.321Z,96732.91
2023-01-17T18:14:14.942Z,96734.79
2023-01-17T18:19:24.173Z,96749.48
2023-01-17T18:24:32.007Z,96753.52
2023-01-17T18:29:39.414Z,96761.48
2023-01-17T18:34:47.891Z,96765.83
2023-01-17T18:39:55.634Z,96758.11
2023-01-17T18:45:03.149Z,96760.88
2023-01-17T18:50:12.340Z,96777.48
2023-01-17T18:55:19.828Z,96775.20
2023-01-17T19:00:27.823Z,96772.05
2023-01-17T19:05:38.463Z,96767.23
2023-01-17T19:10:45.822Z,96760.59
2023-01-17T19:15:54.469Z,96747.64
2023-01-17T19:21:08.635Z,96734.88
2023-01-17T19:26:17.398Z,96736.63
2023-01-17T19:31:27.299Z,96739.63
2023-01-17T19:36:37.649Z,96747.90
2023-01-17T19:41:47.127Z,96752.19
2023-01-17T19:46:56.870Z,96750.69
2023-01-17T19:52:04.133Z,96745.96
2023-01-17T19:57:09.907Z,96741.33
2023-01-17T20:02:18.091Z,96735.54
2023-01-17T20:07:25.385Z,96722.95
2023-01-17T20:12:31.677Z,96718.77
2023-01-17T20:17:39.027Z,96705.76
2023-01-17T20:22:46.674Z,96700.45
2023-01-17T20:27:55.187Z,96704.73
2023-01-17T20:33:03.543Z,96693.95
2023-01-17T20:38:12.161Z,96690.63
2023-01-17T20:43:19.459Z,96688.77
2023-01-17T20:48:26.738Z,96690.09
2023-01-17T20:53:32.811Z,96700.88
2023-01-17T20:58:40.140Z,96694.80
2023-01-17T21:03:49.445Z,96684.52
2023-01-17T21:08:56.888Z,96669.73
2023-01-17T21:14:05.877Z,96697.69
2023-01-17T21:19:17.382Z,96698.86
2023-01-17T21:24:24.821Z,96684.49
2023-01-17T21:29:32.759Z,96667.02
2023-01-17T21:34:40.357Z,96666.60
2023-01-17T21:39:51.667Z,96666.31
2023-01-17T21:44:58.907Z,96666.89
2023-01-17T21:50:04.935Z,96672.42
2023-01-17T21:55:27.040Z,96657.92
2023-01-17T22:00:34.285Z,96638.52
2023-01-17T22:05:42.003Z,96631.55
2023-01-17T22:10:49.373Z,96620.38
2023-01-17T22:16:03.210Z,96617.14
2023-01-17T22:21:13.248Z,96614.43
2023-01-17T22:26:24.433Z,96612.73
2023-01-17T22:31:32.080Z,96613.95
2023-01-17T22:36:39.579Z,96612.15
2023-01-17T22:41:46.799Z,96605.95
2023-01-17T22:46:52.517Z,96600.13
2023-01-17T22:51:59.734Z,96588.02
2023-01-17T22:57:07.879Z,96579.56
2023-01-17T23:02:16.580Z,96573.15
2023-01-17T23:07:27.351Z,96564.88
2023-01-17T23:12:34.989Z,96553.80
2023-01-17T23:17:59.900Z,96546.18
2023-01-17T23:23:07.281Z,96540.95
2023-01-17T23:28:21.081Z,96526.60
2023-01-17T23:33:28.312Z,96516.35
2023-01-17T23:38:37.952Z,96498.66
2023-01-17T23:43:45.433Z,96489.19
2023-01-17T23:48:53.245Z,96480.86
2023-01-17T23:54:05.654Z,96474.56
2023-01-17T23:59:14.112Z,96463.99
